Time,TemperatureF,DewpointF,PressureIn,WindDirection,WindDirectionDegrees,WindSpeedMPH,WindSpeedGustMPH,Humidity,HourlyPrecipIn,Conditions,Clouds,dailyrainin,SoftwareType,DateUTC
2013-01-12 02:11:00,-38.9,-39.1,31.26,North,-999,-999.0,-999.0,99,0.00,,,0.00,meteohub,2013-01-12 08:11:00,
2013-01-12 02:12:00,-38.9,-39.1,31.25,North,-999,-999.0,-999.0,99,0.00,,,0.00,meteohub,2013-01-12 08:12:00,
2013-01-12 02:16:00,-20.6,-20.7,31.25,NW,315,23.0,23.0,99,0.00,,,0.00,meteohub,2013-01-12 08:16:00,
2013-01-12 02:21:00,21.6,21.4,31.26,WSW,248,21.0,23.0,99,0.00,,,0.00,meteohub,2013-01-12 08:21:00,
2013-01-12 02:26:00,20.8,20.7,31.26,NW,315,23.0,23.0,99,0.00,,,0.00,meteohub,2013-01-12 08:26:00,
2013-01-12 02:31:00,44.8,44.6,31.26,North,0,17.0,23.0,99,0.00,,,0.00,meteohub,2013-01-12 08:31:00,
2013-01-12 02:37:00,41.4,41.2,31.26,SW,225,19.0,23.0,99,0.00,,,0.00,meteohub,2013-01-12 08:37:00,
2013-01-12 02:42:00,46.4,46.2,31.26,West,270,21.0,23.0,99,0.00,,,0.00,meteohub,2013-01-12 08:42:00,
2013-01-12 02:47:00,46.4,46.2,31.26,NW,315,18.0,27.0,99,0.00,,,0.00,meteohub,2013-01-12 08:47:00,
2013-01-12 02:52:00,41.2,41.0,31.26,WSW,248,17.0,27.0,99,0.00,,,0.00,meteohub,2013-01-12 08:52:00,
2013-01-12 02:53:00,23.4,23.2,31.26,SW,225,19.0,27.0,99,0.00,,,0.00,meteohub,2013-01-12 08:53:00,
2013-01-12 02:57:00,47.7,47.5,31.26,SW,225,18.0,27.0,99,0.00,,,0.00,meteohub,2013-01-12 08:57:00,
2013-01-12 03:02:00,37.8,37.6,31.27,NW,315,18.0,23.0,99,0.00,,,0.00,meteohub,2013-01-12 09:02:00,
2013-01-12 03:07:00,37.8,37.6,31.26,NW,315,18.0,23.0,99,0.00,,,0.00,meteohub,2013-01-12 09:07:00,
2013-01-12 03:12:00,47.7,47.5,31.26,NNW,338,20.0,21.0,99,0.00,,,0.00,meteohub,2013-01-12 09:12:00,
2013-01-12 03:17:00,45.5,45.3,31.26,NW,315,23.0,23.0,99,0.00,,,0.00,meteohub,2013-01-12 09:17:00,
2013-01-12 03:22:00,48.2,48.0,31.26,SW,225,22.0,23.0,99,0.00,,,0.00,meteohub,2013-01-12 09:22:00,
2013-01-12 03:27:00,49.6,49.5,31.26,North,0,23.0,23.0,99,0.00,,,0.00,meteohub,2013-01-12 09:27:00,
2013-01-12 03:32:00,48.4,48.2,31.26,SW,225,26.0,26.0,99,0.00,,,0.00,meteohub,2013-01-12 09:32:00,
2013-01-12 03:37:00,45.9,45.7,31.27,SW,225,23.0,26.0,99,0.00,,,0.00,meteohub,2013-01-12 09:37:00,
2013-01-12 03:42:00,47.8,47.7,31.26,West,270,19.0,26.0,99,0.00,,,0.00,meteohub,2013-01-12 09:42:00,
2013-01-12 03:47:00,52.7,52.3,31.27,WSW,248,24.0,26.0,99,0.00,,,0.00,meteohub,2013-01-12 09:47:00,
2013-01-12 03:52:00,57.9,57.6,31.27,NW,315,25.0,27.0,99,0.00,,,0.00,meteohub,2013-01-12 09:52:00,
2013-01-12 03:57:00,48.6,48.4,31.27,NNW,338,23.0,27.0,99,0.00,,,0.00,meteohub,2013-01-12 09:57:00,
2013-01-12 04:02:00,39.4,39.2,31.27,WSW,248,23.0,27.0,99,0.00,,,0.00,meteohub,2013-01-12 10:02:00,
2013-01-12 04:07:00,39.4,39.2,31.28,WSW,248,23.0,26.0,99,0.00,,,0.00,meteohub,2013-01-12 10:07:00,
2013-01-12 04:12:00,55.2,54.9,31.27,WSW,248,23.0,26.0,99,0.00,,,0.00,meteohub,2013-01-12 10:12:00,
2013-01-12 04:17:00,43.3,43.2,31.27,NW,315,22.0,23.0,99,0.00,,,0.00,meteohub,2013-01-12 10:17:00,
2013-01-12 04:22:00,46.8,46.6,31.27,SW,225,21.0,25.0,99,0.00,,,0.00,meteohub,2013-01-12 10:22:00,
2013-01-12 04:27:00,46.6,46.4,31.28,SW,225,23.0,26.0,99,0.00,,,0.00,meteohub,2013-01-12 10:27:00,
2013-01-12 04:32:00,47.3,47.1,31.28,NW,315,23.0,27.0,99,0.00,,,0.00,meteohub,2013-01-12 10:32:00,
2013-01-12 04:37:00,47.1,46.9,31.28,SW,225,23.0,27.0,99,0.00,,,0.00,meteohub,2013-01-12 10:37:00,
2013-01-12 04:42:00,46.6,46.0,31.28,NW,315,23.0,27.0,98,0.00,,,0.00,meteohub,2013-01-12 10:42:00,
2013-01-12 04:47:00,46.2,45.7,31.28,SW,225,24.0,27.0,98,0.00,,,0.00,meteohub,2013-01-12 10:47:00,
2013-01-12 04:53:00,47.1,46.6,31.29,West,270,23.0,28.0,98,0.00,,,0.00,meteohub,2013-01-12 10:53:00,
2013-01-12 04:58:00,47.1,46.4,31.29,West,270,19.0,28.0,97,0.00,,,0.00,meteohub,2013-01-12 10:58:00,
2013-01-12 05:03:00,46.9,46.4,31.29,West,270,20.0,28.0,98,0.00,,,0.00,meteohub,2013-01-12 11:03:00,
2013-01-12 05:08:00,46.9,46.4,31.30,West,270,20.0,28.0,98,0.00,,,0.00,meteohub,2013-01-12 11:08:00,
2013-01-12 05:13:00,46.6,46.4,31.31,West,270,23.0,25.0,99,0.00,,,0.00,meteohub,2013-01-12 11:13:00,
2013-01-12 05:18:00,46.6,46.0,31.31,West,270,21.0,26.0,98,0.00,,,0.00,meteohub,2013-01-12 11:18:00,
2013-01-12 05:23:00,46.0,45.5,31.33,West,270,20.0,26.0,98,0.00,,,0.00,meteohub,2013-01-12 11:23:00,
2013-01-12 05:28:00,45.0,44.4,31.33,West,270,28.0,30.0,98,0.01,,,0.01,meteohub,2013-01-12 11:28:00,
2013-01-12 05:33:00,44.2,43.7,31.34,NW,315,21.0,30.0,98,0.01,,,0.01,meteohub,2013-01-12 11:33:00,
2013-01-12 05:38:00,43.3,42.6,31.34,West,270,21.0,28.0,97,0.01,,,0.01,meteohub,2013-01-12 11:38:00,
2013-01-12 05:43:00,42.6,42.1,31.34,West,270,22.0,28.0,98,0.01,,,0.01,meteohub,2013-01-12 11:43:00,
2013-01-12 05:48:00,41.9,41.7,31.34,West,270,19.0,25.0,99,0.01,,,0.01,meteohub,2013-01-12 11:48:00,
2013-01-12 05:54:00,41.5,41.4,31.35,West,270,24.0,25.0,99,0.01,,,0.01,meteohub,2013-01-12 11:54:00,
2013-01-12 05:59:00,40.6,40.5,31.35,West,270,25.0,25.0,99,0.01,,,0.01,meteohub,2013-01-12 11:59:00,
2013-01-12 06:04:00,40.5,40.3,31.36,West,270,23.0,25.0,99,0.01,,,0.01,meteohub,2013-01-12 12:04:00,
2013-01-12 06:09:00,40.5,40.3,31.35,West,270,23.0,25.0,99,0.01,,,0.01,meteohub,2013-01-12 12:09:00,
2013-01-12 06:14:00,38.1,37.9,31.36,West,270,19.0,25.0,99,0.01,,,0.01,meteohub,2013-01-12 12:14:00,
2013-01-12 06:19:00,37.9,37.8,31.35,West,270,22.0,25.0,99,0.01,,,0.01,meteohub,2013-01-12 12:19:00,
2013-01-12 06:24:00,37.4,37.2,31.36,West,270,25.0,25.0,99,0.00,,,0.01,meteohub,2013-01-12 12:24:00,
2013-01-12 06:29:00,36.9,36.7,31.38,West,270,23.0,28.0,99,0.00,,,0.01,meteohub,2013-01-12 12:29:00,
2013-01-12 06:34:00,36.5,36.0,31.38,West,270,24.0,28.0,98,0.00,,,0.01,meteohub,2013-01-12 12:34:00,
2013-01-12 06:39:00,36.3,35.8,31.39,West,270,16.0,30.0,98,0.00,,,0.01,meteohub,2013-01-12 12:39:00,
2013-01-12 06:44:00,35.8,35.6,31.39,West,270,24.0,30.0,99,0.00,,,0.01,meteohub,2013-01-12 12:44:00,
2013-01-12 06:49:00,35.6,35.4,31.39,West,270,24.0,30.0,99,0.00,,,0.01,meteohub,2013-01-12 12:49:00,
2013-01-12 06:54:00,35.2,35.1,31.39,West,270,26.0,27.0,99,0.00,,,0.01,meteohub,2013-01-12 12:54:00,
2013-01-12 06:59:00,35.1,34.9,31.39,West,270,28.0,28.0,99,0.00,,,0.01,meteohub,2013-01-12 12:59:00,
2013-01-12 07:05:00,35.1,34.9,31.39,West,270,28.0,28.0,99,0.00,,,0.01,meteohub,2013-01-12 13:05:00,
2013-01-12 07:10:00,34.5,34.3,31.40,SW,225,25.0,28.0,99,0.00,,,0.01,meteohub,2013-01-12 13:10:00,
2013-01-12 07:15:00,34.2,34.0,31.41,West,270,21.0,28.0,99,0.00,,,0.01,meteohub,2013-01-12 13:15:00,
2013-01-12 07:20:00,33.6,33.4,31.40,West,270,24.0,28.0,99,0.00,,,0.01,meteohub,2013-01-12 13:20:00,
2013-01-12 07:25:00,33.1,32.9,31.42,West,270,28.0,28.0,99,0.00,,,0.01,meteohub,2013-01-12 13:25:00,
2013-01-12 07:30:00,33.1,32.9,31.42,West,270,26.0,28.0,99,0.00,,,0.01,meteohub,2013-01-12 13:30:00,
2013-01-12 07:35:00,32.7,32.5,31.42,NW,315,34.0,34.0,99,0.00,,,0.01,meteohub,2013-01-12 13:35:00,
2013-01-12 07:40:00,32.2,32.0,31.42,West,270,24.0,34.0,99,0.00,,,0.01,meteohub,2013-01-12 13:40:00,
2013-01-12 07:45:00,32.2,31.6,31.43,West,270,22.0,34.0,98,0.00,,,0.01,meteohub,2013-01-12 13:45:00,
2013-01-12 07:50:00,31.6,31.1,31.44,West,270,19.0,34.0,98,0.00,,,0.01,meteohub,2013-01-12 13:50:00,
2013-01-12 07:55:00,31.6,31.1,31.45,West,270,17.0,31.0,98,0.00,,,0.01,meteohub,2013-01-12 13:55:00,
2013-01-12 08:01:00,31.5,30.7,31.44,West,270,21.0,28.0,97,0.00,,,0.01,meteohub,2013-01-12 14:01:00,
2013-01-12 08:06:00,31.5,30.7,31.45,West,270,21.0,26.0,97,0.00,,,0.01,meteohub,2013-01-12 14:06:00,
2013-01-12 08:11:00,31.3,30.7,31.45,NW,315,21.0,21.0,98,0.00,,,0.01,meteohub,2013-01-12 14:11:00,
2013-01-12 08:16:00,31.1,30.9,31.46,West,270,17.0,24.0,99,0.00,,,0.01,meteohub,2013-01-12 14:16:00,
2013-01-12 08:21:00,30.9,30.7,31.46,West,270,26.0,26.0,99,0.00,,,0.01,meteohub,2013-01-12 14:21:00,
2013-01-12 08:26:00,30.7,30.6,31.46,NW,315,24.0,30.0,99,0.00,,,0.01,meteohub,2013-01-12 14:26:00,
2013-01-12 08:31:00,30.6,30.0,31.47,NW,315,23.0,30.0,98,0.00,,,0.01,meteohub,2013-01-12 14:31:00,
2013-01-12 08:36:00,30.9,30.4,31.47,West,270,23.0,30.0,98,0.00,,,0.01,meteohub,2013-01-12 14:36:00,
2013-01-12 08:41:00,30.9,30.2,31.47,West,270,25.0,30.0,97,0.00,,,0.01,meteohub,2013-01-12 14:41:00,
2013-01-12 08:46:00,30.9,29.7,31.48,West,270,27.0,30.0,95,0.00,,,0.01,meteohub,2013-01-12 14:46:00,
2013-01-12 08:51:00,30.9,28.6,31.47,West,270,23.0,34.0,91,0.00,,,0.01,meteohub,2013-01-12 14:51:00,
2013-01-12 08:56:00,30.4,27.9,31.48,West,270,26.0,34.0,90,0.00,,,0.01,meteohub,2013-01-12 14:56:00,
2013-01-12 09:01:00,30.0,27.5,31.48,West,270,27.0,34.0,90,0.00,,,0.01,meteohub,2013-01-12 15:01:00,
2013-01-12 09:06:00,30.0,27.5,31.49,West,270,27.0,28.0,90,0.00,,,0.01,meteohub,2013-01-12 15:06:00,
2013-01-12 09:12:00,29.3,27.0,31.49,West,270,29.0,29.0,91,0.00,,,0.01,meteohub,2013-01-12 15:12:00,
2013-01-12 09:17:00,28.9,26.6,31.49,NNW,338,23.0,29.0,91,0.00,,,0.01,meteohub,2013-01-12 15:17:00,
2013-01-12 09:22:00,28.8,26.2,31.49,NNW,338,26.0,29.0,90,0.00,,,0.01,meteohub,2013-01-12 15:22:00,
2013-01-12 09:27:00,28.0,25.2,31.50,West,270,25.0,29.0,89,0.00,,,0.01,meteohub,2013-01-12 15:27:00,
2013-01-12 09:32:00,27.9,24.8,31.50,West,270,26.0,28.0,88,0.00,,,0.01,meteohub,2013-01-12 15:32:00,
2013-01-12 09:37:00,28.0,24.4,31.50,West,270,21.0,28.0,86,0.00,,,0.01,meteohub,2013-01-12 15:37:00,
2013-01-12 09:42:00,27.3,23.4,31.49,West,270,22.0,34.0,85,0.00,,,0.01,meteohub,2013-01-12 15:42:00,
2013-01-12 09:47:00,26.8,22.6,31.50,West,270,20.0,34.0,84,0.00,,,0.01,meteohub,2013-01-12 15:47:00,
2013-01-12 09:52:00,27.0,23.0,31.51,West,270,23.0,34.0,85,0.00,,,0.01,meteohub,2013-01-12 15:52:00,
2013-01-12 09:57:00,27.5,23.5,31.53,NW,315,14.0,34.0,85,0.00,,,0.01,meteohub,2013-01-12 15:57:00,
2013-01-12 10:02:00,28.2,24.1,31.52,West,270,12.0,25.0,84,0.00,,,0.01,meteohub,2013-01-12 16:02:00,
2013-01-12 10:07:00,28.2,24.1,31.53,West,270,12.0,23.0,84,0.00,,,0.01,meteohub,2013-01-12 16:07:00,
2013-01-12 10:12:00,27.5,22.5,31.52,West,270,27.0,27.0,81,0.00,,,0.01,meteohub,2013-01-12 16:12:00,
2013-01-12 10:17:00,27.7,22.6,31.53,West,270,22.0,27.0,81,0.00,,,0.01,meteohub,2013-01-12 16:17:00,
2013-01-12 10:22:00,27.7,22.6,31.54,West,270,20.0,27.0,81,0.00,,,0.01,meteohub,2013-01-12 16:22:00,
2013-01-12 10:27:00,27.3,22.3,31.53,West,270,22.0,27.0,81,0.00,,,0.01,meteohub,2013-01-12 16:27:00,
2013-01-12 10:32:00,27.7,22.3,31.54,NW,315,18.0,24.0,80,0.00,,,0.01,meteohub,2013-01-12 16:32:00,
2013-01-12 10:37:00,28.0,22.5,31.54,West,270,20.0,24.0,79,0.00,,,0.01,meteohub,2013-01-12 16:37:00,
2013-01-12 10:42:00,28.2,22.6,31.53,West,270,23.0,24.0,79,0.00,,,0.01,meteohub,2013-01-12 16:42:00,
2013-01-12 10:47:00,28.2,22.6,31.53,NW,315,23.0,24.0,79,0.00,,,0.01,meteohub,2013-01-12 16:47:00,
2013-01-12 10:52:00,28.4,22.5,31.54,West,270,21.0,23.0,78,0.00,,,0.01,meteohub,2013-01-12 16:52:00,
2013-01-12 10:57:00,28.0,22.1,31.53,West,270,18.0,23.0,78,0.00,,,0.01,meteohub,2013-01-12 16:57:00,
2013-01-12 11:02:00,27.5,21.6,31.55,West,270,17.0,23.0,78,0.00,,,0.01,meteohub,2013-01-12 17:02:00,
2013-01-12 11:07:00,27.5,21.6,31.56,West,270,17.0,23.0,78,0.00,,,0.01,meteohub,2013-01-12 17:07:00,
2013-01-12 11:12:00,27.0,21.6,31.56,West,270,19.0,23.0,80,0.00,,,0.01,meteohub,2013-01-12 17:12:00,
2013-01-12 11:17:00,26.4,21.4,31.55,West,270,15.0,21.0,81,0.00,,,0.01,meteohub,2013-01-12 17:17:00,
2013-01-12 11:22:00,26.4,21.4,31.55,West,270,18.0,21.0,81,0.00,,,0.01,meteohub,2013-01-12 17:22:00,
2013-01-12 11:27:00,26.8,22.1,31.55,West,270,15.0,21.0,82,0.00,,,0.01,meteohub,2013-01-12 17:27:00,
2013-01-12 11:32:00,27.5,22.8,31.55,West,270,18.0,23.0,82,0.00,,,0.01,meteohub,2013-01-12 17:32:00,
2013-01-12 11:37:00,28.2,23.2,31.55,West,270,21.0,23.0,81,0.00,,,0.01,meteohub,2013-01-12 17:37:00,
2013-01-12 11:42:00,28.0,22.6,31.54,West,270,17.0,23.0,80,0.00,,,0.01,meteohub,2013-01-12 17:42:00,
2013-01-12 11:47:00,27.5,22.8,31.53,West,270,15.0,21.0,82,0.00,,,0.01,meteohub,2013-01-12 17:47:00,
2013-01-12 11:52:00,27.3,22.6,31.54,West,270,19.0,21.0,82,0.00,,,0.01,meteohub,2013-01-12 17:52:00,
2013-01-12 11:57:00,27.3,22.8,31.54,NW,315,18.0,19.0,83,0.00,,,0.01,meteohub,2013-01-12 17:57:00,
2013-01-12 12:02:00,27.5,22.8,31.53,West,270,15.0,19.0,82,0.00,,,0.01,meteohub,2013-01-12 18:02:00,
2013-01-12 12:07:00,27.5,22.8,31.54,West,270,15.0,19.0,82,0.00,,,0.01,meteohub,2013-01-12 18:07:00,
2013-01-12 12:12:00,28.2,23.2,31.53,West,270,16.0,18.0,81,0.00,,,0.01,meteohub,2013-01-12 18:12:00,
2013-01-12 12:17:00,28.0,23.2,31.54,West,270,13.0,16.0,82,0.00,,,0.01,meteohub,2013-01-12 18:17:00,
2013-01-12 12:22:00,27.9,23.4,31.54,West,270,10.0,17.0,83,0.00,,,0.01,meteohub,2013-01-12 18:22:00,
2013-01-12 12:27:00,28.2,23.2,31.54,West,270,12.0,17.0,81,0.00,,,0.01,meteohub,2013-01-12 18:27:00,
2013-01-12 12:32:00,28.0,23.0,31.55,West,270,15.0,17.0,81,0.00,,,0.01,meteohub,2013-01-12 18:32:00,
2013-01-12 12:37:00,27.7,22.3,31.55,West,270,15.0,17.0,80,0.00,,,0.01,meteohub,2013-01-12 18:37:00,
2013-01-12 12:42:00,27.3,22.3,31.55,West,270,15.0,20.0,81,0.00,,,0.01,meteohub,2013-01-12 18:42:00,
2013-01-12 12:47:00,27.3,22.6,31.55,North,0,10.0,20.0,82,0.00,,,0.01,meteohub,2013-01-12 18:47:00,
2013-01-12 12:52:00,27.3,22.8,31.55,WNW,293,15.0,20.0,83,0.00,,,0.01,meteohub,2013-01-12 18:52:00,
2013-01-12 12:57:00,27.3,22.8,31.55,West,270,17.0,19.0,83,0.00,,,0.01,meteohub,2013-01-12 18:57:00,
2013-01-12 13:02:00,27.7,23.2,31.56,West,270,16.0,19.0,83,0.00,,,0.01,meteohub,2013-01-12 19:02:00,
2013-01-12 13:07:00,28.2,23.2,31.56,West,270,17.0,19.0,81,0.00,,,0.01,meteohub,2013-01-12 19:07:00,
2013-01-12 13:12:00,27.7,22.6,31.55,West,270,17.0,20.0,81,0.00,,,0.01,meteohub,2013-01-12 19:12:00,
2013-01-12 13:17:00,27.7,22.8,31.56,West,270,13.0,20.0,82,0.00,,,0.01,meteohub,2013-01-12 19:17:00,
2013-01-12 13:22:00,27.9,23.0,31.57,West,270,11.0,20.0,82,0.00,,,0.01,meteohub,2013-01-12 19:22:00,
2013-01-12 13:27:00,27.9,22.8,31.57,West,270,19.0,19.0,81,0.00,,,0.01,meteohub,2013-01-12 19:27:00,
2013-01-12 13:32:00,28.2,22.8,31.58,West,270,17.0,19.0,80,0.00,,,0.01,meteohub,2013-01-12 19:32:00,
2013-01-12 13:37:00,28.0,22.6,31.57,West,270,15.0,19.0,80,0.00,,,0.01,meteohub,2013-01-12 19:37:00,
2013-01-12 13:42:00,28.2,23.2,31.57,WNW,293,17.0,19.0,81,0.00,,,0.01,meteohub,2013-01-12 19:42:00,
2013-01-12 13:47:00,27.9,22.5,31.57,West,270,17.0,18.0,80,0.00,,,0.01,meteohub,2013-01-12 19:47:00,
2013-01-12 13:52:00,27.5,22.1,31.57,West,270,17.0,17.0,80,0.00,,,0.01,meteohub,2013-01-12 19:52:00,
2013-01-12 13:57:00,27.3,22.3,31.57,West,270,11.0,17.0,81,0.00,,,0.01,meteohub,2013-01-12 19:57:00,
2013-01-12 14:02:00,27.5,22.5,31.57,NW,315,17.0,19.0,81,0.00,,,0.01,meteohub,2013-01-12 20:02:00,
2013-01-12 14:07:00,27.1,21.7,31.58,West,270,19.0,19.0,80,0.00,,,0.01,meteohub,2013-01-12 20:07:00,
2013-01-12 14:12:00,27.1,21.7,31.58,West,270,21.0,21.0,80,0.00,,,0.01,meteohub,2013-01-12 20:12:00,
2013-01-12 14:17:00,27.1,21.7,31.58,West,270,14.0,21.0,80,0.00,,,0.01,meteohub,2013-01-12 20:17:00,
2013-01-12 14:22:00,27.0,21.9,31.58,West,270,14.0,21.0,81,0.00,,,0.01,meteohub,2013-01-12 20:22:00,
2013-01-12 14:27:00,27.0,21.9,31.59,West,270,19.0,21.0,81,0.00,,,0.01,meteohub,2013-01-12 20:27:00,
2013-01-12 14:32:00,26.8,21.7,31.59,West,270,12.0,21.0,81,0.00,,,0.01,meteohub,2013-01-12 20:32:00,
2013-01-12 14:37:00,26.4,21.7,31.58,West,270,19.0,21.0,82,0.00,,,0.01,meteohub,2013-01-12 20:37:00,
2013-01-12 14:42:00,26.2,21.6,31.59,West,270,19.0,21.0,82,0.00,,,0.01,meteohub,2013-01-12 20:42:00,
2013-01-12 14:47:00,26.2,21.7,31.58,West,270,17.0,21.0,83,0.00,,,0.01,meteohub,2013-01-12 20:47:00,
2013-01-12 14:52:00,25.9,21.4,31.59,West,270,17.0,19.0,83,0.00,,,0.01,meteohub,2013-01-12 20:52:00,
2013-01-12 14:57:00,25.7,21.2,31.58,West,270,13.0,19.0,83,0.00,,,0.01,meteohub,2013-01-12 20:57:00,
2013-01-12 15:02:00,25.7,21.2,31.60,West,270,16.0,20.0,83,0.00,,,0.01,meteohub,2013-01-12 21:02:00,
2013-01-12 15:07:00,25.7,21.2,31.60,West,270,16.0,20.0,83,0.00,,,0.01,meteohub,2013-01-12 21:07:00,
2013-01-12 15:12:00,25.3,20.7,31.60,West,270,11.0,20.0,82,0.00,,,0.01,meteohub,2013-01-12 21:12:00,
2013-01-12 15:17:00,25.2,20.5,31.61,West,270,15.0,19.0,82,0.00,,,0.01,meteohub,2013-01-12 21:17:00,
2013-01-12 15:22:00,25.0,20.3,31.60,West,270,15.0,19.0,82,0.00,,,0.01,meteohub,2013-01-12 21:22:00,
2013-01-12 15:27:00,24.8,20.3,31.61,West,270,14.0,19.0,83,0.00,,,0.01,meteohub,2013-01-12 21:27:00,
2013-01-12 15:32:00,24.8,20.3,31.60,West,270,15.0,19.0,83,0.00,,,0.01,meteohub,2013-01-12 21:32:00,
2013-01-12 15:37:00,24.8,20.3,31.60,West,270,15.0,19.0,83,0.00,,,0.01,meteohub,2013-01-12 21:37:00,
2013-01-12 15:42:00,24.8,20.3,31.60,West,270,10.0,17.0,83,0.00,,,0.01,meteohub,2013-01-12 21:42:00,
2013-01-12 15:47:00,24.8,20.3,31.61,West,270,14.0,16.0,83,0.00,,,0.01,meteohub,2013-01-12 21:47:00,
2013-01-12 15:52:00,24.8,20.3,31.61,West,270,14.0,16.0,83,0.00,,,0.01,meteohub,2013-01-12 21:52:00,
2013-01-12 15:57:00,24.6,20.1,31.62,West,270,15.0,15.0,83,0.00,,,0.01,meteohub,2013-01-12 21:57:00,
2013-01-12 16:02:00,24.4,19.8,31.63,NNW,338,16.0,18.0,82,0.00,,,0.01,meteohub,2013-01-12 22:02:00,
2013-01-12 16:07:00,24.4,19.8,31.63,NNW,338,16.0,18.0,82,0.00,,,0.01,meteohub,2013-01-12 22:07:00,
2013-01-12 16:12:00,24.3,19.0,31.63,West,270,17.0,18.0,80,0.00,,,0.01,meteohub,2013-01-12 22:12:00,
2013-01-12 16:17:00,23.9,18.7,31.62,West,270,17.0,19.0,80,0.00,,,0.01,meteohub,2013-01-12 22:17:00,
2013-01-12 16:22:00,23.7,18.5,31.63,West,270,19.0,22.0,80,0.00,,,0.01,meteohub,2013-01-12 22:22:00,
2013-01-12 16:27:00,23.7,18.7,31.63,NW,315,10.0,22.0,81,0.00,,,0.01,meteohub,2013-01-12 22:27:00,
2013-01-12 16:32:00,23.7,18.7,31.62,West,270,14.0,22.0,81,0.00,,,0.01,meteohub,2013-01-12 22:32:00,
2013-01-12 16:38:00,23.7,18.7,31.62,West,270,13.0,19.0,81,0.00,,,0.01,meteohub,2013-01-12 22:38:00,
2013-01-12 16:43:00,23.7,19.0,31.62,West,270,15.0,17.0,82,0.00,,,0.01,meteohub,2013-01-12 22:43:00,
2013-01-12 16:48:00,23.7,19.0,31.63,West,270,8.0,17.0,82,0.00,,,0.01,meteohub,2013-01-12 22:48:00,
2013-01-12 16:53:00,23.7,19.4,31.62,West,270,9.0,16.0,83,0.00,,,0.01,meteohub,2013-01-12 22:53:00,
2013-01-12 16:58:00,23.7,19.4,31.62,West,270,10.0,16.0,83,0.00,,,0.01,meteohub,2013-01-12 22:58:00,
2013-01-12 17:03:00,23.7,19.4,31.61,West,270,11.0,15.0,83,0.00,,,0.01,meteohub,2013-01-12 23:03:00,
2013-01-12 17:08:00,23.7,19.4,31.61,West,270,15.0,15.0,83,0.00,,,0.01,meteohub,2013-01-12 23:08:00,
2013-01-12 17:13:00,23.7,19.6,31.60,West,270,16.0,18.0,84,0.00,,,0.01,meteohub,2013-01-12 23:13:00,
2013-01-12 17:18:00,23.7,19.6,31.60,West,270,14.0,18.0,84,0.00,,,0.01,meteohub,2013-01-12 23:18:00,
2013-01-12 17:23:00,23.5,19.4,31.59,West,270,19.0,19.0,84,0.00,,,0.01,meteohub,2013-01-12 23:23:00,
2013-01-12 17:29:00,23.4,19.2,31.59,NW,315,14.0,18.0,84,0.00,,,0.01,meteohub,2013-01-12 23:29:00,
2013-01-12 17:34:00,23.5,19.4,31.58,West,270,11.0,19.0,84,0.00,,,0.01,meteohub,2013-01-12 23:34:00,
2013-01-12 17:39:00,23.4,19.6,31.57,NNE,23,10.0,19.0,85,0.00,,,0.01,meteohub,2013-01-12 23:39:00,
2013-01-12 17:44:00,23.5,19.4,31.58,NW,315,12.0,15.0,84,0.00,,,0.01,meteohub,2013-01-12 23:44:00,
2013-01-12 17:49:00,23.5,19.4,31.58,West,270,11.0,17.0,84,0.00,,,0.01,meteohub,2013-01-12 23:49:00,
2013-01-12 17:54:00,23.7,19.6,31.57,West,270,8.0,17.0,84,0.00,,,0.01,meteohub,2013-01-12 23:54:00,
2013-01-12 17:59:00,23.5,19.4,31.56,West,270,7.0,17.0,84,0.00,,,0.01,meteohub,2013-01-12 23:59:00,
2013-01-12 18:04:00,23.5,19.4,31.57,West,270,7.0,15.0,84,0.00,,,0.01,meteohub,2013-01-13 00:04:00,
2013-01-12 18:10:00,23.5,19.4,31.58,NW,315,11.0,12.0,84,0.00,,,0.01,meteohub,2013-01-13 00:10:00,
2013-01-12 18:15:00,23.5,19.8,31.58,NW,315,12.0,12.0,85,0.00,,,0.01,meteohub,2013-01-13 00:15:00,
2013-01-12 18:20:00,23.5,19.8,31.58,West,270,8.0,15.0,85,0.00,,,0.01,meteohub,2013-01-13 00:20:00,
2013-01-12 18:25:00,23.7,19.9,31.58,NW,315,8.0,15.0,85,0.00,,,0.01,meteohub,2013-01-13 00:25:00,
2013-01-12 18:30:00,23.5,19.8,31.59,West,270,14.0,14.0,85,0.00,,,0.01,meteohub,2013-01-13 00:30:00,
2013-01-12 18:35:00,23.4,19.6,31.59,NW,315,10.0,14.0,85,0.00,,,0.01,meteohub,2013-01-13 00:35:00,
2013-01-12 18:40:00,23.4,19.6,31.58,NW,315,6.0,14.0,85,0.00,,,0.01,meteohub,2013-01-13 00:40:00,
2013-01-12 18:45:00,23.5,19.8,31.59,West,270,6.0,14.0,85,0.00,,,0.01,meteohub,2013-01-13 00:45:00,
2013-01-12 18:50:00,23.5,19.8,31.60,West,270,9.0,10.0,85,0.00,,,0.01,meteohub,2013-01-13 00:50:00,
2013-01-12 18:56:00,23.5,19.8,31.61,West,270,8.0,9.0,85,0.00,,,0.01,meteohub,2013-01-13 00:56:00,
2013-01-12 19:01:00,23.4,19.6,31.61,West,270,5.0,10.0,85,0.00,,,0.01,meteohub,2013-01-13 01:01:00,
2013-01-12 19:06:00,23.4,19.6,31.60,West,270,7.0,10.0,85,0.00,,,0.01,meteohub,2013-01-13 01:06:00,
2013-01-12 19:11:00,23.7,19.9,31.61,NW,315,10.0,10.0,85,0.00,,,0.01,meteohub,2013-01-13 01:11:00,
2013-01-12 19:16:00,23.5,19.4,31.61,West,270,8.0,12.0,84,0.00,,,0.01,meteohub,2013-01-13 01:16:00,
2013-01-12 19:21:00,23.5,19.4,31.62,West,270,7.0,12.0,84,0.00,,,0.01,meteohub,2013-01-13 01:21:00,
2013-01-12 19:26:00,23.4,19.2,31.62,West,270,8.0,12.0,84,0.00,,,0.01,meteohub,2013-01-13 01:26:00,
2013-01-12 19:31:00,23.4,19.2,31.62,West,270,8.0,11.0,84,0.00,,,0.01,meteohub,2013-01-13 01:31:00,
2013-01-12 19:36:00,23.4,19.2,31.63,WNW,293,7.0,10.0,84,0.00,,,0.01,meteohub,2013-01-13 01:36:00,
2013-01-12 19:41:00,23.2,18.9,31.62,West,270,8.0,16.0,83,0.00,,,0.01,meteohub,2013-01-13 01:41:00,
2013-01-12 19:46:00,23.0,18.7,31.63,West,270,8.0,16.0,83,0.00,,,0.01,meteohub,2013-01-13 01:46:00,
2013-01-12 19:51:00,22.8,18.5,31.64,WSW,248,8.0,16.0,83,0.00,,,0.01,meteohub,2013-01-13 01:51:00,
2013-01-12 19:57:00,22.8,18.1,31.64,West,270,13.0,13.0,82,0.00,,,0.01,meteohub,2013-01-13 01:57:00,
2013-01-12 20:02:00,23.2,18.5,31.63,West,270,10.0,13.0,82,0.00,,,0.01,meteohub,2013-01-13 02:02:00,
2013-01-12 20:07:00,23.2,18.5,31.62,West,270,10.0,13.0,82,0.00,,,0.01,meteohub,2013-01-13 02:07:00,
2013-01-12 20:12:00,22.1,17.4,31.64,West,270,7.0,13.0,82,0.00,,,0.01,meteohub,2013-01-13 02:12:00,
2013-01-12 20:17:00,22.1,17.4,31.64,WSW,248,4.0,10.0,82,0.00,,,0.01,meteohub,2013-01-13 02:17:00,
2013-01-12 20:22:00,22.5,17.8,31.64,West,270,7.0,10.0,82,0.00,,,0.01,meteohub,2013-01-13 02:22:00,
2013-01-12 20:27:00,22.1,17.8,31.64,WSW,248,2.0,8.0,83,0.00,,,0.01,meteohub,2013-01-13 02:27:00,
2013-01-12 20:32:00,21.9,17.2,31.65,WSW,248,4.0,8.0,82,0.00,,,0.01,meteohub,2013-01-13 02:32:00,
2013-01-12 20:37:00,21.9,17.2,31.65,West,270,4.0,8.0,82,0.00,,,0.01,meteohub,2013-01-13 02:37:00,
2013-01-12 20:42:00,21.9,17.2,31.66,West,270,7.0,7.0,82,0.00,,,0.01,meteohub,2013-01-13 02:42:00,
2013-01-12 20:47:00,21.9,17.6,31.66,NW,315,7.0,7.0,83,0.00,,,0.01,meteohub,2013-01-13 02:47:00,
2013-01-12 20:52:00,22.5,18.1,31.67,West,270,10.0,10.0,83,0.00,,,0.01,meteohub,2013-01-13 02:52:00,
2013-01-12 20:58:00,21.9,17.6,31.66,West,270,9.0,10.0,83,0.00,,,0.01,meteohub,2013-01-13 02:58:00,
2013-01-12 21:03:00,21.7,17.4,31.66,West,270,8.0,11.0,83,0.00,,,0.01,meteohub,2013-01-13 03:03:00,
2013-01-12 21:08:00,21.7,17.4,31.65,NW,315,7.0,11.0,83,0.00,,,0.01,meteohub,2013-01-13 03:08:00,
2013-01-12 21:13:00,21.4,17.1,31.64,NW,315,8.0,11.0,83,0.00,,,0.01,meteohub,2013-01-13 03:13:00,
2013-01-12 21:18:00,21.4,17.1,31.63,WSW,248,8.0,8.0,83,0.00,,,0.01,meteohub,2013-01-13 03:18:00,
2013-01-12 21:23:00,21.4,16.7,31.63,West,270,8.0,8.0,82,0.00,,,0.01,meteohub,2013-01-13 03:23:00,
2013-01-12 21:28:00,21.0,16.7,31.63,NW,315,6.0,8.0,83,0.00,,,0.01,meteohub,2013-01-13 03:28:00,
2013-01-12 21:33:00,21.2,16.9,31.62,NW,315,4.0,8.0,83,0.00,,,0.01,meteohub,2013-01-13 03:33:00,
2013-01-12 21:38:00,21.0,16.3,31.62,West,270,6.0,8.0,82,0.00,,,0.01,meteohub,2013-01-13 03:38:00,
2013-01-12 21:43:00,21.0,16.3,31.62,West,270,6.0,8.0,82,0.00,,,0.01,meteohub,2013-01-13 03:43:00,
2013-01-12 21:48:00,20.8,16.2,31.62,NW,315,6.0,8.0,82,0.00,,,0.01,meteohub,2013-01-13 03:48:00,
2013-01-12 21:53:00,20.7,16.0,31.62,West,270,9.0,9.0,82,0.00,,,0.01,meteohub,2013-01-13 03:53:00,
2013-01-12 21:59:00,20.7,16.0,31.62,NW,315,5.0,8.0,82,0.00,,,0.01,meteohub,2013-01-13 03:59:00,
2013-01-12 22:04:00,20.7,16.0,31.62,WSW,248,8.0,10.0,82,0.00,,,0.01,meteohub,2013-01-13 04:04:00,
2013-01-12 22:09:00,20.7,16.0,31.61,WSW,248,8.0,10.0,82,0.00,,,0.01,meteohub,2013-01-13 04:09:00,
2013-01-12 22:14:00,20.5,15.6,31.61,SW,225,6.0,9.0,81,0.00,,,0.01,meteohub,2013-01-13 04:14:00,
2013-01-12 22:19:00,20.3,15.6,31.61,NW,315,7.0,8.0,82,0.00,,,0.01,meteohub,2013-01-13 04:19:00,
2013-01-12 22:24:00,20.5,16.2,31.61,West,270,6.0,8.0,83,0.00,,,0.01,meteohub,2013-01-13 04:24:00,
2013-01-12 22:29:00,20.1,15.8,31.60,West,270,6.0,8.0,83,0.00,,,0.01,meteohub,2013-01-13 04:29:00,
2013-01-12 22:34:00,20.1,15.4,31.61,WNW,293,6.0,10.0,82,0.00,,,0.01,meteohub,2013-01-13 04:34:00,
2013-01-12 22:39:00,20.1,15.8,31.60,WNW,293,6.0,12.0,83,0.00,,,0.01,meteohub,2013-01-13 04:39:00,
2013-01-12 22:45:00,19.8,16.3,31.59,West,270,9.0,12.0,86,0.00,,,0.01,meteohub,2013-01-13 04:45:00,
2013-01-12 22:50:00,19.4,16.7,31.60,West,270,13.0,13.0,89,0.00,,,0.01,meteohub,2013-01-13 04:50:00,
2013-01-12 22:55:00,19.2,17.1,31.60,NW,315,5.0,13.0,91,0.00,,,0.01,meteohub,2013-01-13 04:55:00,
2013-01-12 23:00:00,18.9,17.2,31.58,NW,315,9.0,13.0,93,0.00,,,0.01,meteohub,2013-01-13 05:00:00,
2013-01-12 23:01:00,18.9,17.2,31.57,NW,315,9.0,13.0,93,0.00,,,0.01,meteohub,2013-01-13 05:01:00,
2013-01-12 23:02:00,18.9,17.2,31.57,NW,315,9.0,13.0,93,0.00,,,0.01,meteohub,2013-01-13 05:02:00,
2013-01-12 23:06:00,18.9,17.2,31.57,NW,315,9.0,13.0,93,0.00,,,0.01,meteohub,2013-01-13 05:06:00,
2013-01-12 23:11:00,18.7,16.7,31.56,WNW,293,9.0,10.0,92,0.00,,,0.01,meteohub,2013-01-13 05:11:00,
2013-01-12 23:16:00,18.7,16.7,31.57,NW,315,5.0,10.0,92,0.00,,,0.01,meteohub,2013-01-13 05:16:00,
2013-01-12 23:21:00,18.7,16.2,31.58,WSW,248,5.0,10.0,90,0.00,,,0.01,meteohub,2013-01-13 05:21:00,
2013-01-12 23:26:00,18.9,16.2,31.59,NW,315,8.0,10.0,89,0.00,,,0.01,meteohub,2013-01-13 05:26:00,
2013-01-12 23:31:00,19.0,16.2,31.60,West,270,6.0,13.0,88,0.00,,,0.01,meteohub,2013-01-13 05:31:00,
2013-01-12 23:36:00,19.2,16.0,31.61,West,270,8.0,13.0,87,0.00,,,0.01,meteohub,2013-01-13 05:36:00,
2013-01-12 23:41:00,19.2,15.8,31.61,West,270,4.0,13.0,86,0.00,,,0.01,meteohub,2013-01-13 05:41:00,
2013-01-12 23:46:00,19.4,15.6,31.61,NW,315,4.0,9.0,85,0.00,,,0.01,meteohub,2013-01-13 05:46:00,
2013-01-12 23:51:00,19.0,15.3,31.62,West,270,5.0,9.0,85,0.00,,,0.01,meteohub,2013-01-13 05:51:00,
2013-01-12 23:56:00,19.2,14.9,31.61,West,270,8.0,9.0,83,0.00,,,0.01,meteohub,2013-01-13 05:56:00,